createdAt,value
2018-01-14T00:00:02.968Z,14.87
2018-01-14T00:02:30.575Z,15.20
2018-01-14T00:04:58.165Z,14.93
2018-01-14T00:07:25.728Z,15.37
2018-01-14T00:09:53.318Z,15.90
2018-01-14T00:12:20.886Z,17.70
2018-01-14T00:14:48.453Z,15.37
2018-01-14T00:17:16.045Z,18.10
2018-01-14T00:19:43.611Z,16.37
2018-01-14T00:22:11.956Z,17.87
2018-01-14T00:24:39.525Z,18.43
2018-01-14T00:27:07.113Z,17.60
2018-01-14T00:29:34.673Z,17.00
2018-01-14T00:32:02.301Z,17.80
2018-01-14T00:34:29.869Z,17.50
2018-01-14T00:36:57.457Z,17.40
2018-01-14T00:39:25.022Z,18.50
2018-01-14T00:41:52.615Z,18.57
2018-01-14T00:44:20.182Z,17.20
2018-01-14T00:46:47.769Z,17.30
2018-01-14T00:49:16.097Z,18.53
2018-01-14T00:51:43.685Z,18.70
2018-01-14T00:54:11.256Z,17.27
2018-01-14T00:56:38.852Z,16.23
2018-01-14T00:59:06.448Z,18.33
2018-01-14T01:01:34.045Z,17.77
2018-01-14T01:04:02.371Z,16.63
2018-01-14T01:06:29.956Z,15.33
2018-01-14T01:08:57.566Z,16.70
2018-01-14T01:11:25.161Z,15.73
2018-01-14T01:13:52.729Z,18.43
2018-01-14T01:16:20.327Z,16.83
2018-01-14T01:18:48.661Z,16.10
2018-01-14T01:21:16.254Z,17.60
2018-01-14T01:23:43.825Z,15.60
2018-01-14T01:26:12.351Z,18.23
2018-01-14T01:28:39.922Z,17.00
2018-01-14T01:31:07.489Z,15.87
2018-01-14T01:33:35.082Z,18.30
2018-01-14T01:36:02.665Z,16.90
2018-01-14T01:38:30.254Z,17.70
2018-01-14T01:40:57.824Z,16.57
2018-01-14T01:43:25.421Z,19.40
2018-01-14T01:45:53.752Z,16.50
2018-01-14T01:48:21.352Z,15.53
2018-01-14T01:50:49.702Z,16.93
2018-01-14T01:53:17.313Z,16.90
2018-01-14T01:55:44.878Z,16.17
2018-01-14T01:58:12.471Z,16.90
2018-01-14T02:00:40.041Z,17.13
2018-01-14T02:03:07.640Z,15.73
2018-01-14T02:05:35.204Z,16.00
2018-01-14T02:08:02.796Z,15.90
2018-01-14T02:10:30.359Z,21.07
2018-01-14T02:12:57.956Z,17.47
2018-01-14T02:15:26.292Z,16.10
2018-01-14T02:17:53.881Z,16.30
2018-01-14T02:20:21.448Z,16.03
2018-01-14T02:22:49.038Z,16.53
2018-01-14T02:25:16.608Z,17.63
2018-01-14T02:27:44.193Z,17.77
2018-01-14T02:30:11.762Z,18.73
2018-01-14T02:32:41.005Z,19.37
2018-01-14T02:35:08.568Z,22.17
2018-01-14T02:37:36.177Z,20.20
2018-01-14T02:40:03.747Z,20.10
2018-01-14T02:42:31.366Z,28.57
2018-01-14T02:44:58.935Z,26.87
2018-01-14T02:47:26.504Z,23.97
2018-01-14T02:49:54.096Z,27.17
2018-01-14T02:52:23.346Z,27.37
2018-01-14T02:54:50.933Z,25.87
2018-01-14T02:57:18.500Z,25.53
2018-01-14T02:59:46.096Z,18.37
2018-01-14T03:02:13.668Z,16.97
2018-01-14T03:04:41.255Z,17.50
2018-01-14T03:07:08.828Z,18.10
2018-01-14T03:09:36.417Z,15.53
2018-01-14T03:12:03.985Z,18.03
2018-01-14T03:14:31.580Z,18.03
2018-01-14T03:16:59.157Z,23.70
2018-01-14T03:19:26.747Z,27.53
2018-01-14T03:21:55.090Z,29.23
2018-01-14T03:24:22.682Z,33.20
2018-01-14T03:26:50.250Z,26.23
2018-01-14T03:29:18.605Z,33.67
2018-01-14T03:31:46.178Z,18.40
2018-01-14T03:34:13.769Z,19.47
2018-01-14T03:36:41.335Z,19.67
2018-01-14T03:39:08.929Z,17.20
2018-01-14T03:41:36.497Z,18.27
2018-01-14T03:44:04.088Z,16.33
2018-01-14T03:46:31.666Z,18.00
2018-01-14T03:48:59.260Z,16.83
2018-01-14T03:51:26.825Z,16.50
2018-01-14T03:53:54.413Z,17.67
2018-01-14T03:56:22.754Z,17.33
2018-01-14T03:58:50.324Z,16.20
2018-01-14T04:01:17.916Z,18.27
2018-01-14T04:03:45.493Z,22.27
2018-01-14T04:06:13.102Z,52.53
2018-01-14T04:08:40.699Z,20.03
2018-01-14T04:11:08.288Z,21.73
2018-01-14T04:13:35.851Z,23.27
2018-01-14T04:16:03.433Z,24.20
2018-01-14T04:18:31.008Z,38.20
2018-01-14T04:20:58.609Z,20.43
2018-01-14T04:23:26.181Z,20.20
2018-01-14T04:25:53.779Z,16.43
2018-01-14T04:28:21.350Z,16.70
2018-01-14T04:30:49.706Z,19.43
2018-01-14T04:33:17.289Z,16.57
2018-01-14T04:35:44.882Z,17.20
2018-01-14T04:38:12.462Z,18.60
2018-01-14T04:40:40.056Z,16.67
2018-01-14T04:43:07.631Z,17.13
2018-01-14T04:45:35.997Z,18.50
2018-01-14T04:48:03.566Z,27.37
2018-01-14T04:50:31.170Z,23.07
2018-01-14T04:52:58.738Z,24.60
2018-01-14T04:55:26.321Z,29.00
2018-01-14T04:57:53.890Z,26.80
2018-01-14T05:00:21.479Z,25.97
2018-01-14T05:02:49.041Z,20.23
2018-01-14T05:05:17.496Z,19.50
2018-01-14T05:07:45.821Z,18.00
2018-01-14T05:10:13.412Z,18.20
2018-01-14T05:12:41.770Z,18.50
2018-01-14T05:15:09.904Z,17.47
2018-01-14T05:17:37.541Z,19.83
2018-01-14T05:20:05.869Z,17.33
2018-01-14T05:22:33.453Z,15.93
2018-01-14T05:25:01.017Z,17.90
2018-01-14T05:27:28.605Z,17.50
2018-01-14T05:29:56.175Z,17.73
2018-01-14T05:32:23.770Z,17.50
2018-01-14T05:34:51.336Z,19.13
2018-01-14T05:37:18.929Z,18.83
2018-01-14T05:39:46.489Z,18.30
2018-01-14T05:42:14.845Z,17.63
2018-01-14T05:44:42.412Z,16.17
2018-01-14T05:47:09.997Z,19.00
2018-01-14T05:49:38.345Z,17.40
2018-01-14T05:52:05.946Z,17.67
2018-01-14T05:54:33.518Z,19.57
2018-01-14T05:57:01.110Z,16.80
2018-01-14T05:59:28.677Z,16.70
2018-01-14T06:01:56.275Z,17.80
2018-01-14T06:04:24.614Z,15.70
2018-01-14T06:06:52.208Z,17.03
2018-01-14T06:09:20.546Z,18.20
2018-01-14T06:11:48.207Z,18.43
2018-01-14T06:14:16.459Z,18.00
2018-01-14T06:16:44.121Z,18.00
2018-01-14T06:19:11.692Z,19.33
2018-01-14T06:21:39.284Z,17.20
2018-01-14T06:24:07.620Z,18.50
2018-01-14T06:26:35.205Z,17.60
2018-01-14T06:29:02.785Z,19.53
2018-01-14T06:31:30.350Z,17.93
2018-01-14T06:33:58.705Z,18.07
2018-01-14T06:36:26.267Z,17.10
2018-01-14T06:38:53.924Z,16.90
2018-01-14T06:41:21.497Z,16.80
2018-01-14T06:43:49.086Z,17.23
2018-01-14T06:46:16.674Z,16.27
2018-01-14T06:48:44.268Z,19.00
2018-01-14T06:51:11.833Z,18.53
2018-01-14T06:53:40.185Z,17.27
2018-01-14T06:56:07.870Z,18.80
2018-01-14T06:58:35.461Z,17.60
2018-01-14T07:01:03.035Z,16.57
2018-01-14T07:03:30.631Z,18.37
2018-01-14T07:05:58.205Z,17.60
2018-01-14T07:08:25.990Z,17.50
2018-01-14T07:10:53.565Z,17.87
2018-01-14T07:13:21.162Z,17.00
2018-01-14T07:15:48.887Z,26.20
2018-01-14T07:18:16.508Z,31.57
2018-01-14T07:20:44.077Z,35.30
2018-01-14T07:23:12.435Z,22.53
2018-01-14T07:25:40.015Z,19.13
2018-01-14T07:28:07.609Z,21.40
2018-01-14T07:30:35.176Z,20.77
2018-01-14T07:33:02.895Z,21.80
2018-01-14T07:35:31.229Z,17.17
2018-01-14T07:37:58.832Z,17.77
2018-01-14T07:40:26.396Z,19.77
2018-01-14T07:42:54.220Z,28.80
2018-01-14T07:45:21.813Z,19.67
2018-01-14T07:47:49.382Z,22.50
2018-01-14T07:50:16.973Z,24.27
2018-01-14T07:52:44.541Z,20.43
2018-01-14T07:55:12.130Z,23.03
2018-01-14T07:57:39.702Z,18.53
2018-01-14T08:00:07.296Z,19.27
2018-01-14T08:02:34.863Z,18.27
2018-01-14T08:05:02.461Z,25.27
2018-01-14T08:07:30.036Z,23.37
2018-01-14T08:09:58.397Z,31.50
2018-01-14T08:12:25.969Z,31.90
2018-01-14T08:14:53.557Z,24.53
2018-01-14T08:17:21.127Z,40.97
2018-01-14T08:19:48.718Z,44.90
2018-01-14T08:22:16.296Z,27.70
2018-01-14T08:24:43.885Z,26.40
2018-01-14T08:27:12.213Z,28.57
2018-01-14T08:29:39.799Z,28.60
2018-01-14T08:32:07.368Z,23.20
2018-01-14T08:34:35.721Z,17.83
2018-01-14T08:37:03.293Z,22.63
2018-01-14T08:39:30.885Z,20.90
2018-01-14T08:41:58.458Z,16.90
2018-01-14T08:44:26.046Z,37.23
2018-01-14T08:46:54.386Z,47.83
2018-01-14T08:49:21.978Z,68.90
2018-01-14T08:51:49.551Z,43.63
2018-01-14T08:54:17.146Z,31.73
2018-01-14T08:56:44.713Z,20.13
2018-01-14T08:59:12.277Z,18.53
2018-01-14T09:01:45.590Z,18.00
2018-01-14T09:04:13.154Z,16.10
2018-01-14T09:06:40.746Z,18.13
2018-01-14T09:09:08.318Z,17.33
2018-01-14T09:11:35.909Z,14.93
2018-01-14T09:14:03.559Z,26.20
2018-01-14T09:16:31.184Z,17.90
2018-01-14T09:18:58.762Z,16.20
2018-01-14T09:21:26.353Z,15.13
2018-01-14T09:23:53.919Z,18.30
2018-01-14T09:26:21.506Z,13.90
2018-01-14T09:28:49.069Z,13.53
2018-01-14T09:31:16.665Z,15.50
2018-01-14T09:33:44.238Z,15.73
2018-01-14T09:36:11.826Z,13.90
2018-01-14T09:38:39.390Z,12.03
2018-01-14T09:41:06.977Z,16.10
2018-01-14T09:43:34.599Z,14.10
2018-01-14T09:46:02.193Z,15.03
2018-01-14T09:48:29.773Z,13.40
2018-01-14T09:50:57.807Z,11.50
2018-01-14T09:53:25.372Z,12.10
2018-01-14T09:55:52.970Z,14.03
2018-01-14T09:58:21.301Z,12.70
2018-01-14T10:00:48.892Z,12.70
2018-01-14T10:03:16.461Z,13.70
2018-01-14T10:05:45.348Z,14.60
2018-01-14T10:08:12.913Z,14.17
2018-01-14T10:10:41.271Z,13.70
2018-01-14T10:13:08.842Z,15.07
2018-01-14T10:15:37.202Z,15.73
2018-01-14T10:18:04.773Z,14.20
2018-01-14T10:20:32.349Z,14.53
2018-01-14T10:23:00.708Z,13.50
2018-01-14T10:25:29.045Z,12.80
2018-01-14T10:27:56.772Z,12.93
2018-01-14T10:30:24.340Z,13.70
2018-01-14T10:32:51.934Z,12.60
2018-01-14T10:35:19.512Z,14.47
2018-01-14T10:37:47.109Z,15.60
2018-01-14T10:40:14.687Z,16.33
2018-01-14T10:42:42.277Z,15.30
2018-01-14T10:45:09.848Z,15.17
2018-01-14T10:47:37.436Z,15.87
2018-01-14T10:50:05.768Z,15.27
2018-01-14T10:52:33.365Z,15.50
2018-01-14T10:55:00.945Z,15.50
2018-01-14T10:57:28.539Z,15.83
2018-01-14T10:59:56.108Z,15.93
2018-01-14T11:02:23.704Z,14.50
2018-01-14T11:04:52.054Z,17.90
2018-01-14T11:07:19.654Z,17.37
2018-01-14T11:09:47.238Z,14.57
2018-01-14T11:12:14.834Z,16.10
2018-01-14T11:14:42.433Z,16.47
2018-01-14T11:17:10.026Z,15.97
2018-01-14T11:19:37.606Z,15.53
2018-01-14T11:22:05.200Z,16.43
2018-01-14T11:24:33.540Z,16.00
2018-01-14T11:27:01.142Z,15.50
2018-01-14T11:29:53.455Z,16.23
2018-01-14T11:32:21.054Z,15.53
2018-01-14T11:34:48.903Z,15.47
2018-01-14T11:37:18.062Z,16.20
2018-01-14T11:39:48.066Z,15.80
2018-01-14T11:42:16.476Z,15.90
2018-01-14T11:44:44.047Z,15.67
2018-01-14T11:47:11.650Z,15.83
2018-01-14T11:49:39.265Z,15.30
2018-01-14T11:52:06.833Z,16.50
2018-01-14T11:54:34.429Z,16.63
2018-01-14T11:57:01.996Z,19.07
2018-01-14T11:59:30.353Z,17.27
2018-01-14T12:01:57.922Z,15.70
2018-01-14T12:04:25.515Z,15.40
2018-01-14T12:06:53.085Z,17.10
2018-01-14T12:09:20.686Z,14.73
2018-01-14T12:11:48.257Z,16.33
2018-01-14T12:14:15.853Z,16.10
2018-01-14T12:16:43.421Z,23.77
2018-01-14T12:19:11.014Z,18.07
2018-01-14T12:21:38.581Z,16.40
2018-01-14T12:24:06.176Z,14.97
2018-01-14T12:26:33.740Z,15.40
2018-01-14T12:29:01.336Z,16.07
2018-01-14T12:31:28.896Z,14.53
2018-01-14T12:37:06.831Z,14.03
2018-01-14T12:39:34.428Z,15.43
2018-01-14T12:42:01.997Z,17.10
2018-01-14T12:44:29.593Z,16.67
2018-01-14T12:46:57.937Z,15.20
2018-01-14T12:49:25.534Z,13.87
2018-01-14T12:51:53.105Z,15.90
2018-01-14T12:54:20.696Z,14.70
2018-01-14T12:56:48.259Z,14.00
2018-01-14T12:59:15.861Z,13.23
2018-01-14T13:01:44.230Z,13.60
2018-01-14T13:04:12.592Z,15.67
2018-01-14T13:06:40.171Z,14.60
2018-01-14T13:09:07.759Z,15.43
2018-01-14T13:11:35.368Z,14.77
2018-01-14T13:14:02.957Z,14.37
2018-01-14T13:16:30.525Z,16.10
2018-01-14T13:18:58.260Z,15.50
2018-01-14T13:21:25.842Z,14.37
2018-01-14T13:23:54.243Z,15.90
2018-01-14T13:26:21.816Z,15.07
2018-01-14T13:28:49.415Z,15.43
2018-01-14T13:31:17.061Z,14.90
2018-01-14T13:33:44.637Z,15.73
2018-01-14T13:36:12.806Z,16.13
2018-01-14T13:38:40.378Z,13.53
2018-01-14T13:41:08.787Z,15.87
2018-01-14T13:43:36.359Z,15.50
2018-01-14T13:46:03.953Z,14.13
2018-01-14T13:48:32.654Z,14.73
2018-01-14T13:51:00.247Z,13.40
2018-01-14T13:53:27.898Z,15.90
2018-01-14T13:55:55.493Z,16.40
2018-01-14T13:58:23.056Z,15.73
2018-01-14T14:00:50.650Z,13.93
2018-01-14T14:03:18.261Z,13.83
2018-01-14T14:05:45.852Z,14.20
2018-01-14T14:08:13.517Z,13.00
2018-01-14T14:10:41.157Z,13.40
2018-01-14T14:13:09.496Z,14.53
2018-01-14T14:15:37.086Z,13.13
2018-01-14T14:18:05.968Z,14.80
2018-01-14T14:20:33.843Z,12.70
2018-01-14T14:23:01.453Z,14.03
2018-01-14T14:25:29.084Z,14.40
2018-01-14T14:27:56.658Z,13.93
2018-01-14T14:30:24.254Z,14.90
2018-01-14T14:32:51.868Z,13.40
2018-01-14T14:35:20.246Z,15.03
2018-01-14T14:37:47.817Z,14.70
2018-01-14T14:40:15.423Z,13.80
2018-01-14T14:42:44.294Z,14.50
2018-01-14T14:45:11.948Z,13.77
2018-01-14T14:47:39.710Z,15.33
2018-01-14T14:50:07.478Z,15.67
2018-01-14T14:52:35.892Z,13.57
2018-01-14T14:55:03.457Z,14.20
2018-01-14T14:57:31.087Z,15.63
2018-01-14T14:59:58.762Z,13.17
2018-01-14T15:02:26.356Z,12.80
2018-01-14T15:04:53.927Z,15.70
2018-01-14T15:07:21.555Z,14.70
2018-01-14T15:09:49.126Z,13.80
2018-01-14T15:12:16.756Z,13.17
2018-01-14T15:14:44.321Z,14.70
2018-01-14T15:17:11.913Z,13.20
2018-01-14T15:19:39.531Z,13.07
2018-01-14T15:22:07.120Z,13.90
2018-01-14T15:24:34.697Z,14.10
2018-01-14T15:27:02.336Z,14.50
2018-01-14T15:29:29.898Z,16.77
2018-01-14T15:31:58.252Z,24.37
2018-01-14T15:34:25.859Z,24.00
2018-01-14T15:36:53.449Z,23.60
2018-01-14T15:39:21.251Z,14.40
2018-01-14T15:41:48.898Z,11.50
2018-01-14T15:44:16.461Z,12.30
2018-01-14T15:46:44.054Z,12.50
2018-01-14T15:49:11.621Z,11.60
2018-01-14T15:51:39.236Z,11.17
2018-01-14T15:54:06.851Z,9.67
2018-01-14T15:56:34.464Z,10.20
2018-01-14T15:59:04.254Z,9.70
2018-01-14T16:01:31.821Z,10.20
2018-01-14T16:03:59.457Z,9.33
2018-01-14T16:06:31.472Z,9.30
2018-01-14T16:08:59.102Z,15.17
2018-01-14T16:11:26.715Z,17.30
2018-01-14T16:13:56.468Z,9.83
2018-01-14T16:16:26.420Z,13.03
2018-01-14T16:18:56.167Z,10.23
2018-01-14T16:21:30.638Z,14.70
2018-01-14T16:23:58.549Z,14.20
2018-01-14T16:26:26.166Z,11.13
2018-01-14T16:28:53.782Z,14.33
2018-01-14T16:31:22.116Z,12.20
2018-01-14T16:33:49.712Z,22.50
2018-01-14T16:36:18.050Z,28.97
2018-01-14T16:38:45.679Z,15.07
2018-01-14T16:41:13.291Z,14.17
2018-01-14T16:43:40.892Z,18.07
2018-01-14T16:46:08.464Z,17.90
2018-01-14T16:48:36.049Z,20.53
2018-01-14T16:51:03.845Z,15.37
2018-01-14T16:53:31.442Z,15.00
2018-01-14T16:55:59.829Z,10.23
2018-01-14T16:58:27.464Z,21.33
2018-01-14T17:00:55.036Z,42.40
2018-01-14T17:03:22.632Z,15.67
2018-01-14T17:05:50.204Z,13.27
2018-01-14T17:08:17.830Z,17.90
2018-01-14T17:10:45.436Z,22.57
2018-01-14T17:13:13.071Z,24.57
2018-01-14T17:15:40.640Z,17.37
2018-01-14T17:18:08.281Z,14.73
2018-01-14T17:20:36.131Z,18.13
2018-01-14T17:23:03.718Z,12.90
2018-01-14T17:25:31.318Z,24.30
2018-01-14T17:27:59.123Z,20.93
2018-01-14T17:30:26.717Z,13.13
2018-01-14T17:32:54.296Z,13.70
2018-01-14T17:35:22.695Z,15.97
2018-01-14T17:37:50.270Z,16.47
2018-01-14T17:40:18.095Z,18.63
2018-01-14T17:42:47.255Z,13.63
2018-01-14T17:45:15.617Z,11.43
2018-01-14T17:47:43.419Z,18.03
2018-01-14T17:50:11.010Z,12.27
2018-01-14T17:52:38.580Z,14.27
2018-01-14T17:55:06.419Z,12.60
2018-01-14T17:57:34.219Z,13.23
2018-01-14T18:00:01.816Z,13.57
2018-01-14T18:02:29.396Z,15.90
2018-01-14T18:04:57.215Z,12.30
2018-01-14T18:07:24.781Z,12.63
2018-01-14T18:09:52.415Z,11.00
2018-01-14T18:12:20.020Z,9.80
2018-01-14T18:14:47.646Z,12.03
2018-01-14T18:17:25.126Z,10.30
2018-01-14T18:19:52.946Z,9.63
2018-01-14T18:22:21.523Z,9.47
2018-01-14T18:24:49.350Z,10.73
2018-01-14T18:27:17.146Z,9.80
2018-01-14T18:29:44.744Z,9.53
2018-01-14T18:32:12.571Z,9.40
2018-01-14T18:34:40.235Z,10.97
2018-01-14T18:37:07.805Z,10.50
2018-01-14T18:39:35.436Z,10.43
2018-01-14T18:42:03.327Z,11.03
2018-01-14T18:44:31.684Z,11.60
2018-01-14T18:46:59.314Z,10.40
2018-01-14T18:49:26.932Z,10.33
2018-01-14T18:51:54.567Z,9.77
2018-01-14T18:54:22.180Z,9.20
2018-01-14T18:56:49.903Z,10.10
2018-01-14T18:59:18.752Z,10.00
2018-01-14T19:01:47.609Z,9.20
2018-01-14T19:04:15.214Z,10.03
2018-01-14T19:06:42.805Z,10.47
2018-01-14T19:09:10.426Z,9.57
2018-01-14T19:11:38.152Z,14.90
2018-01-14T19:14:05.728Z,11.97
2018-01-14T19:16:33.370Z,11.47
2018-01-14T19:19:00.941Z,13.63
2018-01-14T19:21:28.532Z,14.83
2018-01-14T19:23:56.138Z,15.13
2018-01-14T19:26:24.494Z,21.10
2018-01-14T19:28:52.065Z,55.33
2018-01-14T19:31:20.474Z,20.13
2018-01-14T19:33:49.183Z,30.10
2018-01-14T19:36:17.012Z,22.20
2018-01-14T19:38:44.637Z,19.50
2018-01-14T19:41:12.732Z,16.87
2018-01-14T19:43:40.354Z,17.57
2018-01-14T19:46:08.010Z,31.90
2018-01-14T19:48:38.562Z,15.00
2018-01-14T19:51:06.755Z,16.63
2018-01-14T19:53:35.732Z,19.10
2018-01-14T19:56:08.130Z,16.17
2018-01-14T19:58:37.767Z,15.67
2018-01-14T20:01:07.344Z,14.10
2018-01-14T20:03:35.215Z,13.87
2018-01-14T20:06:03.041Z,11.60
2018-01-14T20:08:30.788Z,11.67
2018-01-14T20:10:58.461Z,11.30
2018-01-14T20:13:26.055Z,10.90
2018-01-14T20:15:53.676Z,10.33
2018-01-14T20:18:21.340Z,11.00
2018-01-14T20:20:48.952Z,12.07
2018-01-14T20:23:16.595Z,12.20
2018-01-14T20:25:44.979Z,12.03
2018-01-14T20:28:12.622Z,13.17
2018-01-14T20:30:40.248Z,11.57
2018-01-14T20:33:07.892Z,11.07
2018-01-14T20:35:35.836Z,9.70
2018-01-14T20:38:03.498Z,10.20
2018-01-14T20:40:31.113Z,11.30
2018-01-14T20:42:59.565Z,11.43
2018-01-14T20:45:27.247Z,13.80
2018-01-14T20:47:54.893Z,17.50
2018-01-14T20:50:24.406Z,14.80
2018-01-14T20:52:53.876Z,11.27
2018-01-14T20:55:21.548Z,13.90
2018-01-14T20:57:49.185Z,12.50
2018-01-14T21:00:17.008Z,12.37
2018-01-14T21:02:44.645Z,11.30
2018-01-14T21:05:12.276Z,11.40
2018-01-14T21:07:39.926Z,11.17
2018-01-14T21:10:07.548Z,11.50
2018-01-14T21:12:35.279Z,11.40
2018-01-14T21:15:02.891Z,12.97
2018-01-14T21:17:30.482Z,12.10
2018-01-14T21:19:58.122Z,11.93
2018-01-14T21:22:26.537Z,19.03
2018-01-14T21:24:54.158Z,11.53
2018-01-14T21:27:22.569Z,13.17
2018-01-14T21:29:50.133Z,10.73
2018-01-14T21:32:17.700Z,34.67
2018-01-14T21:34:45.341Z,25.37
2018-01-14T21:37:12.961Z,11.90
2018-01-14T21:39:41.363Z,21.03
2018-01-14T21:42:08.987Z,17.60
2018-01-14T21:44:36.628Z,11.30
2018-01-14T21:47:05.162Z,12.20
2018-01-14T21:49:32.795Z,10.40
2018-01-14T21:52:00.413Z,11.87
2018-01-14T21:54:28.062Z,17.97
2018-01-14T21:56:55.689Z,14.07
2018-01-14T21:59:24.220Z,15.13
2018-01-14T22:01:51.842Z,12.40
2018-01-14T22:04:19.479Z,12.30
2018-01-14T22:06:47.049Z,12.60
2018-01-14T22:09:15.400Z,11.30
2018-01-14T22:11:42.979Z,10.80
2018-01-14T22:14:10.622Z,10.37
2018-01-14T22:16:38.194Z,10.97
2018-01-14T22:19:05.838Z,10.30
2018-01-14T22:21:33.464Z,12.87
2018-01-14T22:24:01.103Z,10.17
2018-01-14T22:26:28.736Z,10.37
2018-01-14T22:28:56.377Z,11.50
2018-01-14T22:31:23.940Z,12.17
2018-01-14T22:33:51.555Z,14.00
2018-01-14T22:36:19.193Z,24.30
2018-01-14T22:38:47.588Z,22.87
2018-01-14T22:41:15.228Z,17.43
2018-01-14T22:43:43.064Z,16.80
2018-01-14T22:46:10.653Z,13.50
2018-01-14T22:48:38.987Z,25.27
2018-01-14T22:51:06.581Z,16.17
2018-01-14T22:53:34.198Z,14.53
2018-01-14T22:56:01.831Z,13.20
2018-01-14T22:58:29.440Z,12.30
2018-01-14T23:00:57.080Z,12.13
2018-01-14T23:03:24.695Z,20.63
2018-01-14T23:05:53.049Z,16.93
2018-01-14T23:08:20.652Z,28.20
2018-01-14T23:10:48.292Z,22.87
2018-01-14T23:13:15.863Z,21.50
2018-01-14T23:15:43.476Z,47.40
2018-01-14T23:18:11.041Z,37.40
2018-01-14T23:20:38.631Z,25.07
2018-01-14T23:23:06.216Z,19.77
2018-01-14T23:25:33.819Z,46.97
2018-01-14T23:28:01.402Z,23.90
2018-01-14T23:30:28.998Z,15.67
2018-01-14T23:32:56.577Z,31.87
2018-01-14T23:35:24.170Z,16.90
2018-01-14T23:37:51.733Z,17.10
2018-01-14T23:40:20.091Z,13.20
2018-01-14T23:42:47.662Z,14.27
2018-01-14T23:45:15.249Z,14.17
2018-01-14T23:47:42.814Z,13.60
2018-01-14T23:50:10.406Z,12.40
2018-01-14T23:52:37.979Z,14.07
2018-01-14T23:55:05.547Z,14.37
2018-01-14T23:57:33.169Z,16.10
